sensor_id;sensor_type;location;lat;lon;timestamp;P1;durP1;ratioP1;P2;durP2;ratioP2
69256;SDS011;56376;53.356;-1.748;2023-09-19T00:00:46;4.78;;;1.23;;
69256;SDS011;56376;53.356;-1.748;2023-09-19T00:03:15;5.13;;;1.85;;
69256;SDS011;56376;53.356;-1.748;2023-09-19T00:05:40;8.55;;;2.22;;
69256;SDS011;56376;53.356;-1.748;2023-09-19T00:10:55;4.57;;;1.60;;
69256;SDS011;56376;53.356;-1.748;2023-09-19T00:13:21;3.20;;;1.40;;
69256;SDS011;56376;53.356;-1.748;2023-09-19T00:15:47;4.40;;;1.25;;
69256;SDS011;56376;53.356;-1.748;2023-09-19T00:20:53;8.02;;;1.90;;
69256;SDS011;56376;53.356;-1.748;2023-09-19T00:23:22;5.90;;;1.73;;
69256;SDS011;56376;53.356;-1.748;2023-09-19T00:25:49;4.63;;;1.42;;
69256;SDS011;56376;53.356;-1.748;2023-09-19T00:28:17;5.43;;;1.83;;
69256;SDS011;56376;53.356;-1.748;2023-09-19T00:30:44;6.90;;;2.20;;
69256;SDS011;56376;53.356;-1.748;2023-09-19T00:33:20;5.20;;;2.15;;
69256;SDS011;56376;53.356;-1.748;2023-09-19T00:35:50;6.40;;;2.30;;
69256;SDS011;56376;53.356;-1.748;2023-09-19T00:38:18;4.47;;;1.40;;
69256;SDS011;56376;53.356;-1.748;2023-09-19T00:40:52;4.78;;;1.52;;
69256;SDS011;56376;53.356;-1.748;2023-09-19T00:43:19;6.63;;;1.80;;
69256;SDS011;56376;53.356;-1.748;2023-09-19T00:45:50;4.43;;;1.73;;
69256;SDS011;56376;53.356;-1.748;2023-09-19T00:48:19;8.15;;;1.90;;
69256;SDS011;56376;53.356;-1.748;2023-09-19T00:50:52;4.45;;;1.83;;
69256;SDS011;56376;53.356;-1.748;2023-09-19T00:53:20;5.70;;;1.98;;
69256;SDS011;56376;53.356;-1.748;2023-09-19T00:55:49;4.32;;;2.03;;
69256;SDS011;56376;53.356;-1.748;2023-09-19T00:58:18;4.35;;;1.50;;
69256;SDS011;56376;53.356;-1.748;2023-09-19T01:00:44;11.32;;;2.53;;
69256;SDS011;56376;53.356;-1.748;2023-09-19T01:03:10;5.47;;;2.00;;
69256;SDS011;56376;53.356;-1.748;2023-09-19T01:05:38;4.70;;;1.80;;
69256;SDS011;56376;53.356;-1.748;2023-09-19T01:08:06;4.95;;;1.45;;
69256;SDS011;56376;53.356;-1.748;2023-09-19T01:10:36;6.32;;;2.28;;
69256;SDS011;56376;53.356;-1.748;2023-09-19T01:13:16;4.63;;;1.67;;
69256;SDS011;56376;53.356;-1.748;2023-09-19T01:15:59;7.78;;;2.05;;
69256;SDS011;56376;53.356;-1.748;2023-09-19T01:21:29;5.40;;;2.17;;
69256;SDS011;56376;53.356;-1.748;2023-09-19T01:32:52;8.38;;;2.10;;
69256;SDS011;56376;53.356;-1.748;2023-09-19T01:35:19;7.43;;;2.13;;
69256;SDS011;56376;53.356;-1.748;2023-09-19T01:37:46;6.22;;;2.10;;
69256;SDS011;56376;53.356;-1.748;2023-09-19T01:40:16;8.32;;;2.85;;
69256;SDS011;56376;53.356;-1.748;2023-09-19T01:45:50;6.53;;;2.10;;
69256;SDS011;56376;53.356;-1.748;2023-09-19T01:51:13;9.95;;;3.25;;
69256;SDS011;56376;53.356;-1.748;2023-09-19T01:53:49;5.10;;;2.05;;
69256;SDS011;56376;53.356;-1.748;2023-09-19T01:56:21;5.95;;;2.22;;
69256;SDS011;56376;53.356;-1.748;2023-09-19T01:58:51;3.97;;;2.00;;
69256;SDS011;56376;53.356;-1.748;2023-09-19T02:01:31;12.23;;;3.33;;
69256;SDS011;56376;53.356;-1.748;2023-09-19T02:04:02;11.45;;;3.35;;
69256;SDS011;56376;53.356;-1.748;2023-09-19T02:06:32;8.45;;;3.10;;
69256;SDS011;56376;53.356;-1.748;2023-09-19T02:09:01;8.65;;;2.72;;
69256;SDS011;56376;53.356;-1.748;2023-09-19T02:11:27;7.68;;;3.30;;
69256;SDS011;56376;53.356;-1.748;2023-09-19T02:13:56;7.85;;;2.28;;
69256;SDS011;56376;53.356;-1.748;2023-09-19T02:16:27;9.10;;;2.30;;
69256;SDS011;56376;53.356;-1.748;2023-09-19T02:18:53;7.95;;;2.00;;
69256;SDS011;56376;53.356;-1.748;2023-09-19T02:21:21;9.75;;;2.92;;
69256;SDS011;56376;53.356;-1.748;2023-09-19T02:23:50;11.82;;;2.55;;
69256;SDS011;56376;53.356;-1.748;2023-09-19T02:26:18;7.45;;;3.20;;
69256;SDS011;56376;53.356;-1.748;2023-09-19T02:28:44;5.53;;;2.90;;
69256;SDS011;56376;53.356;-1.748;2023-09-19T02:31:11;9.40;;;2.58;;
69256;SDS011;56376;53.356;-1.748;2023-09-19T02:33:44;10.27;;;4.78;;
69256;SDS011;56376;53.356;-1.748;2023-09-19T02:36:12;8.25;;;2.42;;
69256;SDS011;56376;53.356;-1.748;2023-09-19T02:38:42;10.68;;;2.33;;
69256;SDS011;56376;53.356;-1.748;2023-09-19T02:41:10;6.53;;;2.47;;
69256;SDS011;56376;53.356;-1.748;2023-09-19T02:43:36;9.30;;;2.50;;
69256;SDS011;56376;53.356;-1.748;2023-09-19T02:46:04;8.18;;;2.50;;
69256;SDS011;56376;53.356;-1.748;2023-09-19T02:51:24;9.27;;;2.58;;
69256;SDS011;56376;53.356;-1.748;2023-09-19T02:53:53;6.30;;;2.45;;
69256;SDS011;56376;53.356;-1.748;2023-09-19T02:56:19;12.75;;;3.13;;
69256;SDS011;56376;53.356;-1.748;2023-09-19T02:58:51;5.78;;;2.15;;
69256;SDS011;56376;53.356;-1.748;2023-09-19T03:01:20;9.75;;;2.95;;
69256;SDS011;56376;53.356;-1.748;2023-09-19T03:03:48;8.18;;;2.58;;
69256;SDS011;56376;53.356;-1.748;2023-09-19T03:06:19;6.28;;;2.10;;
69256;SDS011;56376;53.356;-1.748;2023-09-19T03:08:54;5.93;;;2.05;;
69256;SDS011;56376;53.356;-1.748;2023-09-19T03:11:22;6.78;;;2.45;;
69256;SDS011;56376;53.356;-1.748;2023-09-19T03:13:53;9.13;;;3.13;;
69256;SDS011;56376;53.356;-1.748;2023-09-19T03:16:21;4.55;;;1.83;;
69256;SDS011;56376;53.356;-1.748;2023-09-19T03:18:52;5.70;;;2.00;;
69256;SDS011;56376;53.356;-1.748;2023-09-19T03:21:21;8.85;;;2.67;;
69256;SDS011;56376;53.356;-1.748;2023-09-19T03:23:50;5.55;;;2.08;;
69256;SDS011;56376;53.356;-1.748;2023-09-19T03:26:19;10.00;;;2.58;;
69256;SDS011;56376;53.356;-1.748;2023-09-19T03:28:56;6.90;;;2.60;;
69256;SDS011;56376;53.356;-1.748;2023-09-19T03:31:32;10.35;;;2.75;;
69256;SDS011;56376;53.356;-1.748;2023-09-19T03:34:01;5.53;;;2.45;;
69256;SDS011;56376;53.356;-1.748;2023-09-19T03:36:30;6.40;;;2.30;;
69256;SDS011;56376;53.356;-1.748;2023-09-19T03:38:56;12.50;;;3.20;;
69256;SDS011;56376;53.356;-1.748;2023-09-19T03:41:21;7.68;;;2.60;;
69256;SDS011;56376;53.356;-1.748;2023-09-19T03:43:46;6.30;;;2.55;;
69256;SDS011;56376;53.356;-1.748;2023-09-19T03:46:15;6.45;;;2.10;;
69256;SDS011;56376;53.356;-1.748;2023-09-19T03:48:44;9.00;;;2.55;;
69256;SDS011;56376;53.356;-1.748;2023-09-19T03:51:15;7.25;;;2.45;;
69256;SDS011;56376;53.356;-1.748;2023-09-19T03:53:40;9.15;;;2.40;;
69256;SDS011;56376;53.356;-1.748;2023-09-19T03:56:08;9.93;;;2.60;;
69256;SDS011;56376;53.356;-1.748;2023-09-19T03:58:36;4.55;;;2.17;;
69256;SDS011;56376;53.356;-1.748;2023-09-19T04:01:04;6.78;;;2.13;;
69256;SDS011;56376;53.356;-1.748;2023-09-19T04:03:35;11.55;;;3.28;;
69256;SDS011;56376;53.356;-1.748;2023-09-19T04:06:11;10.13;;;2.47;;
69256;SDS011;56376;53.356;-1.748;2023-09-19T04:08:39;8.43;;;2.75;;
69256;SDS011;56376;53.356;-1.748;2023-09-19T04:11:04;6.50;;;2.92;;
69256;SDS011;56376;53.356;-1.748;2023-09-19T04:13:30;6.93;;;2.05;;
69256;SDS011;56376;53.356;-1.748;2023-09-19T04:15:58;7.30;;;2.35;;
69256;SDS011;56376;53.356;-1.748;2023-09-19T04:18:26;6.57;;;2.03;;
69256;SDS011;56376;53.356;-1.748;2023-09-19T04:20:52;6.28;;;2.30;;
69256;SDS011;56376;53.356;-1.748;2023-09-19T04:23:18;7.55;;;2.35;;
69256;SDS011;56376;53.356;-1.748;2023-09-19T04:25:47;7.00;;;2.45;;
69256;SDS011;56376;53.356;-1.748;2023-09-19T04:28:15;6.25;;;2.15;;
69256;SDS011;56376;53.356;-1.748;2023-09-19T04:30:41;7.45;;;2.70;;
69256;SDS011;56376;53.356;-1.748;2023-09-19T04:33:06;5.03;;;2.17;;
69256;SDS011;56376;53.356;-1.748;2023-09-19T04:35:32;3.42;;;1.75;;
69256;SDS011;56376;53.356;-1.748;2023-09-19T04:38:01;4.53;;;1.83;;
69256;SDS011;56376;53.356;-1.748;2023-09-19T04:40:28;6.35;;;2.30;;
69256;SDS011;56376;53.356;-1.748;2023-09-19T04:42:54;3.65;;;2.00;;
69256;SDS011;56376;53.356;-1.748;2023-09-19T04:45:22;4.88;;;1.80;;
69256;SDS011;56376;53.356;-1.748;2023-09-19T04:47:48;3.95;;;2.00;;
69256;SDS011;56376;53.356;-1.748;2023-09-19T04:50:14;5.07;;;2.03;;
69256;SDS011;56376;53.356;-1.748;2023-09-19T04:52:43;6.05;;;2.20;;
69256;SDS011;56376;53.356;-1.748;2023-09-19T04:55:16;6.25;;;2.83;;
69256;SDS011;56376;53.356;-1.748;2023-09-19T05:00:31;5.82;;;2.15;;
69256;SDS011;56376;53.356;-1.748;2023-09-19T05:03:00;5.57;;;2.10;;
69256;SDS011;56376;53.356;-1.748;2023-09-19T05:05:25;6.50;;;3.22;;
69256;SDS011;56376;53.356;-1.748;2023-09-19T05:07:52;5.95;;;2.00;;
69256;SDS011;56376;53.356;-1.748;2023-09-19T05:10:20;4.88;;;2.70;;
69256;SDS011;56376;53.356;-1.748;2023-09-19T05:12:46;7.40;;;2.17;;
69256;SDS011;56376;53.356;-1.748;2023-09-19T05:15:13;5.35;;;2.05;;
69256;SDS011;56376;53.356;-1.748;2023-09-19T05:17:47;5.40;;;2.00;;
69256;SDS011;56376;53.356;-1.748;2023-09-19T05:20:13;5.97;;;1.65;;
69256;SDS011;56376;53.356;-1.748;2023-09-19T05:22:43;7.50;;;1.70;;
69256;SDS011;56376;53.356;-1.748;2023-09-19T05:25:11;3.92;;;1.70;;
69256;SDS011;56376;53.356;-1.748;2023-09-19T05:27:42;5.13;;;1.60;;
69256;SDS011;56376;53.356;-1.748;2023-09-19T05:30:08;2.45;;;1.48;;
69256;SDS011;56376;53.356;-1.748;2023-09-19T05:32:34;3.58;;;1.70;;
69256;SDS011;56376;53.356;-1.748;2023-09-19T05:34:59;3.53;;;1.30;;
69256;SDS011;56376;53.356;-1.748;2023-09-19T05:37:25;3.13;;;1.05;;
69256;SDS011;56376;53.356;-1.748;2023-09-19T05:39:51;3.80;;;1.55;;
69256;SDS011;56376;53.356;-1.748;2023-09-19T05:42:16;3.40;;;1.20;;
69256;SDS011;56376;53.356;-1.748;2023-09-19T05:44:42;3.85;;;1.20;;
69256;SDS011;56376;53.356;-1.748;2023-09-19T05:47:10;3.25;;;1.45;;
69256;SDS011;56376;53.356;-1.748;2023-09-19T05:49:35;5.55;;;1.35;;
69256;SDS011;56376;53.356;-1.748;2023-09-19T05:52:06;3.17;;;1.45;;
69256;SDS011;56376;53.356;-1.748;2023-09-19T05:54:32;2.70;;;1.33;;
69256;SDS011;56376;53.356;-1.748;2023-09-19T05:59:27;3.08;;;1.73;;
69256;SDS011;56376;53.356;-1.748;2023-09-19T06:01:53;5.20;;;2.00;;
69256;SDS011;56376;53.356;-1.748;2023-09-19T06:04:18;4.32;;;2.15;;
69256;SDS011;56376;53.356;-1.748;2023-09-19T06:06:45;4.15;;;2.45;;
69256;SDS011;56376;53.356;-1.748;2023-09-19T06:09:13;5.03;;;2.38;;
69256;SDS011;56376;53.356;-1.748;2023-09-19T06:11:40;5.57;;;2.95;;
69256;SDS011;56376;53.356;-1.748;2023-09-19T06:14:06;6.07;;;2.35;;
69256;SDS011;56376;53.356;-1.748;2023-09-19T06:16:32;4.25;;;2.38;;
69256;SDS011;56376;53.356;-1.748;2023-09-19T06:18:57;5.78;;;2.60;;
69256;SDS011;56376;53.356;-1.748;2023-09-19T06:21:24;6.15;;;2.60;;
69256;SDS011;56376;53.356;-1.748;2023-09-19T06:23:51;3.88;;;2.03;;
69256;SDS011;56376;53.356;-1.748;2023-09-19T06:26:17;4.30;;;2.15;;
69256;SDS011;56376;53.356;-1.748;2023-09-19T06:28:45;3.65;;;1.95;;
69256;SDS011;56376;53.356;-1.748;2023-09-19T06:31:10;5.22;;;2.38;;
69256;SDS011;56376;53.356;-1.748;2023-09-19T06:33:36;5.45;;;2.22;;
69256;SDS011;56376;53.356;-1.748;2023-09-19T06:36:05;6.25;;;2.65;;
69256;SDS011;56376;53.356;-1.748;2023-09-19T06:41:36;4.97;;;2.00;;
69256;SDS011;56376;53.356;-1.748;2023-09-19T06:44:03;4.40;;;2.22;;
69256;SDS011;56376;53.356;-1.748;2023-09-19T06:46:30;6.63;;;2.20;;
69256;SDS011;56376;53.356;-1.748;2023-09-19T06:48:58;4.47;;;2.50;;
69256;SDS011;56376;53.356;-1.748;2023-09-19T06:51:23;4.95;;;2.38;;
69256;SDS011;56376;53.356;-1.748;2023-09-19T06:53:48;5.35;;;2.50;;
69256;SDS011;56376;53.356;-1.748;2023-09-19T06:56:14;5.75;;;2.58;;
69256;SDS011;56376;53.356;-1.748;2023-09-19T06:58:40;6.95;;;3.10;;
69256;SDS011;56376;53.356;-1.748;2023-09-19T07:01:08;7.18;;;3.22;;
69256;SDS011;56376;53.356;-1.748;2023-09-19T07:03:33;6.05;;;4.28;;
69256;SDS011;56376;53.356;-1.748;2023-09-19T07:05:59;6.13;;;3.55;;
69256;SDS011;56376;53.356;-1.748;2023-09-19T07:08:25;5.90;;;2.95;;
69256;SDS011;56376;53.356;-1.748;2023-09-19T07:10:50;6.38;;;3.70;;
69256;SDS011;56376;53.356;-1.748;2023-09-19T07:13:17;8.77;;;3.10;;
69256;SDS011;56376;53.356;-1.748;2023-09-19T07:15:43;8.55;;;3.20;;
69256;SDS011;56376;53.356;-1.748;2023-09-19T07:18:14;8.40;;;3.10;;
69256;SDS011;56376;53.356;-1.748;2023-09-19T07:20:41;8.40;;;2.78;;
69256;SDS011;56376;53.356;-1.748;2023-09-19T07:23:14;6.95;;;3.30;;
69256;SDS011;56376;53.356;-1.748;2023-09-19T07:25:40;6.47;;;2.38;;
69256;SDS011;56376;53.356;-1.748;2023-09-19T07:28:06;4.10;;;2.60;;
69256;SDS011;56376;53.356;-1.748;2023-09-19T07:30:31;7.00;;;3.10;;
69256;SDS011;56376;53.356;-1.748;2023-09-19T07:32:57;6.63;;;3.00;;
69256;SDS011;56376;53.356;-1.748;2023-09-19T07:35:22;6.65;;;2.85;;
69256;SDS011;56376;53.356;-1.748;2023-09-19T07:40:18;6.10;;;2.53;;
69256;SDS011;56376;53.356;-1.748;2023-09-19T07:42:44;7.97;;;3.45;;
69256;SDS011;56376;53.356;-1.748;2023-09-19T07:45:12;5.63;;;2.70;;
69256;SDS011;56376;53.356;-1.748;2023-09-19T07:47:48;6.15;;;2.95;;
69256;SDS011;56376;53.356;-1.748;2023-09-19T07:50:17;6.32;;;2.80;;
69256;SDS011;56376;53.356;-1.748;2023-09-19T07:52:44;6.57;;;2.90;;
69256;SDS011;56376;53.356;-1.748;2023-09-19T07:55:09;4.57;;;2.42;;
69256;SDS011;56376;53.356;-1.748;2023-09-19T07:57:37;8.10;;;3.08;;
69256;SDS011;56376;53.356;-1.748;2023-09-19T08:00:03;8.68;;;3.67;;
69256;SDS011;56376;53.356;-1.748;2023-09-19T08:02:39;6.13;;;3.00;;
69256;SDS011;56376;53.356;-1.748;2023-09-19T08:05:05;5.45;;;2.90;;
69256;SDS011;56376;53.356;-1.748;2023-09-19T08:10:21;6.45;;;2.90;;
69256;SDS011;56376;53.356;-1.748;2023-09-19T08:12:47;5.57;;;3.10;;
69256;SDS011;56376;53.356;-1.748;2023-09-19T08:17:39;5.30;;;2.42;;
69256;SDS011;56376;53.356;-1.748;2023-09-19T08:20:06;5.43;;;2.40;;
69256;SDS011;56376;53.356;-1.748;2023-09-19T08:22:32;7.03;;;2.30;;
69256;SDS011;56376;53.356;-1.748;2023-09-19T08:24:57;5.60;;;2.00;;
69256;SDS011;56376;53.356;-1.748;2023-09-19T08:27:23;3.40;;;2.17;;
69256;SDS011;56376;53.356;-1.748;2023-09-19T08:29:52;2.63;;;1.75;;
69256;SDS011;56376;53.356;-1.748;2023-09-19T08:32:17;6.47;;;2.00;;
69256;SDS011;56376;53.356;-1.748;2023-09-19T08:34:48;3.38;;;1.80;;
69256;SDS011;56376;53.356;-1.748;2023-09-19T08:37:15;4.40;;;1.75;;
69256;SDS011;56376;53.356;-1.748;2023-09-19T08:39:43;4.60;;;1.90;;
69256;SDS011;56376;53.356;-1.748;2023-09-19T08:42:09;2.88;;;1.50;;
69256;SDS011;56376;53.356;-1.748;2023-09-19T08:44:36;4.25;;;1.63;;
69256;SDS011;56376;53.356;-1.748;2023-09-19T08:52:43;2.90;;;1.50;;
69256;SDS011;56376;53.356;-1.748;2023-09-19T08:55:12;3.17;;;1.60;;
69256;SDS011;56376;53.356;-1.748;2023-09-19T09:00:33;2.33;;;1.45;;
69256;SDS011;56376;53.356;-1.748;2023-09-19T09:03:00;2.97;;;1.63;;
69256;SDS011;56376;53.356;-1.748;2023-09-19T09:05:27;4.28;;;1.70;;
69256;SDS011;56376;53.356;-1.748;2023-09-19T09:07:53;1.73;;;1.20;;
69256;SDS011;56376;53.356;-1.748;2023-09-19T09:10:21;2.50;;;1.50;;
69256;SDS011;56376;53.356;-1.748;2023-09-19T09:12:51;3.15;;;1.23;;
69256;SDS011;56376;53.356;-1.748;2023-09-19T09:15:18;2.95;;;1.13;;
69256;SDS011;56376;53.356;-1.748;2023-09-19T09:17:50;3.90;;;1.70;;
69256;SDS011;56376;53.356;-1.748;2023-09-19T09:20:17;2.05;;;1.00;;
69256;SDS011;56376;53.356;-1.748;2023-09-19T09:22:56;1.35;;;1.00;;
69256;SDS011;56376;53.356;-1.748;2023-09-19T09:28:27;0.98;;;0.60;;
69256;SDS011;56376;53.356;-1.748;2023-09-19T09:30:54;0.52;;;0.52;;
69256;SDS011;56376;53.356;-1.748;2023-09-19T09:33:20;1.58;;;0.73;;
69256;SDS011;56376;53.356;-1.748;2023-09-19T09:38:20;0.40;;;0.32;;
69256;SDS011;56376;53.356;-1.748;2023-09-19T09:40:49;1.25;;;0.60;;
69256;SDS011;56376;53.356;-1.748;2023-09-19T09:43:30;0.88;;;0.50;;
69256;SDS011;56376;53.356;-1.748;2023-09-19T09:51:39;0.55;;;0.30;;
69256;SDS011;56376;53.356;-1.748;2023-09-19T09:54:11;0.22;;;0.20;;
69256;SDS011;56376;53.356;-1.748;2023-09-19T09:57:02;0.20;;;0.20;;
69256;SDS011;56376;53.356;-1.748;2023-09-19T10:02:25;0.30;;;0.20;;
69256;SDS011;56376;53.356;-1.748;2023-09-19T10:04:57;2.05;;;0.95;;
69256;SDS011;56376;53.356;-1.748;2023-09-19T10:07:40;0.57;;;0.40;;
69256;SDS011;56376;53.356;-1.748;2023-09-19T10:10:07;1.55;;;0.30;;
69256;SDS011;56376;53.356;-1.748;2023-09-19T10:12:46;0.20;;;0.20;;
69256;SDS011;56376;53.356;-1.748;2023-09-19T10:15:16;2.88;;;0.40;;
69256;SDS011;56376;53.356;-1.748;2023-09-19T10:17:46;0.30;;;0.20;;
69256;SDS011;56376;53.356;-1.748;2023-09-19T10:20:13;0.35;;;0.20;;
69256;SDS011;56376;53.356;-1.748;2023-09-19T10:22:49;0.20;;;0.20;;
69256;SDS011;56376;53.356;-1.748;2023-09-19T10:25:25;1.00;;;0.25;;
69256;SDS011;56376;53.356;-1.748;2023-09-19T10:27:57;0.33;;;0.20;;
69256;SDS011;56376;53.356;-1.748;2023-09-19T10:30:27;1.95;;;0.40;;
69256;SDS011;56376;53.356;-1.748;2023-09-19T10:33:02;0.17;;;0.17;;
69256;SDS011;56376;53.356;-1.748;2023-09-19T10:35:30;1.33;;;0.30;;
69256;SDS011;56376;53.356;-1.748;2023-09-19T10:38:00;0.22;;;0.22;;
69256;SDS011;56376;53.356;-1.748;2023-09-19T10:40:26;1.35;;;0.40;;
69256;SDS011;56376;53.356;-1.748;2023-09-19T10:43:05;0.20;;;0.20;;
69256;SDS011;56376;53.356;-1.748;2023-09-19T10:45:31;2.38;;;0.63;;
69256;SDS011;56376;53.356;-1.748;2023-09-19T10:47:59;1.45;;;0.40;;
69256;SDS011;56376;53.356;-1.748;2023-09-19T10:50:25;0.30;;;0.20;;
69256;SDS011;56376;53.356;-1.748;2023-09-19T10:52:56;1.08;;;0.20;;
69256;SDS011;56376;53.356;-1.748;2023-09-19T10:55:29;0.20;;;0.20;;
69256;SDS011;56376;53.356;-1.748;2023-09-19T10:57:58;0.65;;;0.35;;
69256;SDS011;56376;53.356;-1.748;2023-09-19T11:00:25;0.28;;;0.20;;
69256;SDS011;56376;53.356;-1.748;2023-09-19T11:11:39;0.30;;;0.20;;
69256;SDS011;56376;53.356;-1.748;2023-09-19T11:14:14;0.55;;;0.30;;
69256;SDS011;56376;53.356;-1.748;2023-09-19T11:23:23;1.65;;;0.43;;
69256;SDS011;56376;53.356;-1.748;2023-09-19T11:25:41;0.52;;;0.30;;
69256;SDS011;56376;53.356;-1.748;2023-09-19T11:30:46;0.40;;;0.20;;
69256;SDS011;56376;53.356;-1.748;2023-09-19T11:46:51;0.20;;;0.20;;
69256;SDS011;56376;53.356;-1.748;2023-09-19T11:49:26;1.02;;;0.52;;
69256;SDS011;56376;53.356;-1.748;2023-09-19T11:51:56;0.98;;;0.20;;
69256;SDS011;56376;53.356;-1.748;2023-09-19T11:54:25;0.63;;;0.30;;
69256;SDS011;56376;53.356;-1.748;2023-09-19T11:56:57;0.32;;;0.30;;
69256;SDS011;56376;53.356;-1.748;2023-09-19T11:59:25;1.00;;;0.45;;
69256;SDS011;56376;53.356;-1.748;2023-09-19T12:02:00;0.65;;;0.63;;
69256;SDS011;56376;53.356;-1.748;2023-09-19T12:04:35;1.45;;;0.30;;
69256;SDS011;56376;53.356;-1.748;2023-09-19T12:10:20;0.30;;;0.30;;
69256;SDS011;56376;53.356;-1.748;2023-09-19T12:12:45;0.60;;;0.30;;
69256;SDS011;56376;53.356;-1.748;2023-09-19T12:15:14;0.90;;;0.40;;
69256;SDS011;56376;53.356;-1.748;2023-09-19T12:17:40;1.15;;;0.30;;
69256;SDS011;56376;53.356;-1.748;2023-09-19T12:20:07;1.00;;;0.40;;
69256;SDS011;56376;53.356;-1.748;2023-09-19T12:22:42;0.95;;;0.40;;
69256;SDS011;56376;53.356;-1.748;2023-09-19T12:25:09;1.67;;;0.55;;
69256;SDS011;56376;53.356;-1.748;2023-09-19T12:30:34;0.20;;;0.20;;
69256;SDS011;56376;53.356;-1.748;2023-09-19T12:33:02;0.30;;;0.20;;
69256;SDS011;56376;53.356;-1.748;2023-09-19T12:35:31;1.45;;;0.35;;
69256;SDS011;56376;53.356;-1.748;2023-09-19T12:38:02;0.20;;;0.20;;
69256;SDS011;56376;53.356;-1.748;2023-09-19T12:40:28;0.28;;;0.28;;
69256;SDS011;56376;53.356;-1.748;2023-09-19T12:42:57;0.32;;;0.30;;
69256;SDS011;56376;53.356;-1.748;2023-09-19T12:45:24;0.35;;;0.28;;
69256;SDS011;56376;53.356;-1.748;2023-09-19T12:53:38;0.70;;;0.30;;
69256;SDS011;56376;53.356;-1.748;2023-09-19T12:56:07;0.50;;;0.35;;
69256;SDS011;56376;53.356;-1.748;2023-09-19T12:58:57;0.40;;;0.30;;
69256;SDS011;56376;53.356;-1.748;2023-09-19T13:01:23;1.02;;;0.38;;
69256;SDS011;56376;53.356;-1.748;2023-09-19T13:06:54;0.65;;;0.45;;
69256;SDS011;56376;53.356;-1.748;2023-09-19T13:09:21;0.40;;;0.40;;
69256;SDS011;56376;53.356;-1.748;2023-09-19T13:11:53;0.70;;;0.52;;
69256;SDS011;56376;53.356;-1.748;2023-09-19T13:19:40;0.93;;;0.73;;
69256;SDS011;56376;53.356;-1.748;2023-09-19T13:22:40;2.63;;;1.00;;
69256;SDS011;56376;53.356;-1.748;2023-09-19T13:25:14;2.20;;;0.70;;
69256;SDS011;56376;53.356;-1.748;2023-09-19T13:27:43;2.67;;;0.90;;
69256;SDS011;56376;53.356;-1.748;2023-09-19T13:30:10;2.85;;;0.80;;
69256;SDS011;56376;53.356;-1.748;2023-09-19T13:32:36;4.70;;;0.70;;
69256;SDS011;56376;53.356;-1.748;2023-09-19T13:35:02;3.17;;;1.05;;
69256;SDS011;56376;53.356;-1.748;2023-09-19T13:37:32;3.78;;;1.08;;
69256;SDS011;56376;53.356;-1.748;2023-09-19T13:39:59;2.58;;;0.93;;
69256;SDS011;56376;53.356;-1.748;2023-09-19T13:42:25;2.97;;;0.93;;
69256;SDS011;56376;53.356;-1.748;2023-09-19T13:44:54;4.63;;;1.40;;
69256;SDS011;56376;53.356;-1.748;2023-09-19T13:47:22;3.88;;;1.20;;
69256;SDS011;56376;53.356;-1.748;2023-09-19T13:49:49;2.58;;;1.00;;
69256;SDS011;56376;53.356;-1.748;2023-09-19T13:52:18;4.90;;;1.40;;
69256;SDS011;56376;53.356;-1.748;2023-09-19T13:54:43;1.67;;;1.05;;
69256;SDS011;56376;53.356;-1.748;2023-09-19T13:57:10;2.38;;;1.10;;
69256;SDS011;56376;53.356;-1.748;2023-09-19T13:59:36;6.97;;;1.45;;
69256;SDS011;56376;53.356;-1.748;2023-09-19T14:02:01;2.25;;;1.08;;
69256;SDS011;56376;53.356;-1.748;2023-09-19T14:04:30;2.65;;;1.35;;
69256;SDS011;56376;53.356;-1.748;2023-09-19T14:06:57;2.33;;;1.00;;
69256;SDS011;56376;53.356;-1.748;2023-09-19T14:09:23;3.15;;;1.10;;
69256;SDS011;56376;53.356;-1.748;2023-09-19T14:11:49;2.33;;;1.13;;
69256;SDS011;56376;53.356;-1.748;2023-09-19T14:14:17;1.17;;;0.70;;
69256;SDS011;56376;53.356;-1.748;2023-09-19T14:16:47;5.50;;;1.25;;
69256;SDS011;56376;53.356;-1.748;2023-09-19T14:19:13;4.53;;;1.20;;
69256;SDS011;56376;53.356;-1.748;2023-09-19T14:21:40;5.63;;;2.10;;
69256;SDS011;56376;53.356;-1.748;2023-09-19T14:24:06;6.88;;;1.80;;
69256;SDS011;56376;53.356;-1.748;2023-09-19T14:26:40;4.85;;;2.30;;
69256;SDS011;56376;53.356;-1.748;2023-09-19T14:29:05;5.88;;;1.95;;
69256;SDS011;56376;53.356;-1.748;2023-09-19T14:31:36;7.40;;;2.00;;
69256;SDS011;56376;53.356;-1.748;2023-09-19T14:34:03;4.53;;;2.00;;
69256;SDS011;56376;53.356;-1.748;2023-09-19T14:36:29;7.10;;;2.50;;
69256;SDS011;56376;53.356;-1.748;2023-09-19T14:38:55;5.63;;;2.40;;
69256;SDS011;56376;53.356;-1.748;2023-09-19T14:41:20;9.55;;;2.38;;
69256;SDS011;56376;53.356;-1.748;2023-09-19T14:43:47;7.80;;;2.50;;
69256;SDS011;56376;53.356;-1.748;2023-09-19T14:46:14;8.73;;;2.97;;
69256;SDS011;56376;53.356;-1.748;2023-09-19T14:48:40;5.57;;;2.15;;
69256;SDS011;56376;53.356;-1.748;2023-09-19T14:51:06;6.68;;;2.28;;
69256;SDS011;56376;53.356;-1.748;2023-09-19T14:53:36;8.90;;;2.95;;
69256;SDS011;56376;53.356;-1.748;2023-09-19T14:56:05;6.97;;;3.15;;
69256;SDS011;56376;53.356;-1.748;2023-09-19T14:58:32;10.73;;;3.33;;
69256;SDS011;56376;53.356;-1.748;2023-09-19T15:01:05;7.07;;;2.58;;
69256;SDS011;56376;53.356;-1.748;2023-09-19T15:03:33;7.57;;;2.83;;
69256;SDS011;56376;53.356;-1.748;2023-09-19T15:06:02;8.25;;;2.90;;
69256;SDS011;56376;53.356;-1.748;2023-09-19T15:08:32;10.05;;;2.92;;
69256;SDS011;56376;53.356;-1.748;2023-09-19T15:11:00;11.20;;;3.55;;
69256;SDS011;56376;53.356;-1.748;2023-09-19T15:13:31;10.48;;;3.28;;
69256;SDS011;56376;53.356;-1.748;2023-09-19T15:16:01;8.77;;;2.75;;
69256;SDS011;56376;53.356;-1.748;2023-09-19T15:18:29;10.98;;;3.30;;
69256;SDS011;56376;53.356;-1.748;2023-09-19T15:20:55;10.73;;;2.83;;
69256;SDS011;56376;53.356;-1.748;2023-09-19T15:23:27;10.32;;;3.15;;
69256;SDS011;56376;53.356;-1.748;2023-09-19T15:25:54;9.25;;;2.70;;
69256;SDS011;56376;53.356;-1.748;2023-09-19T15:28:21;8.15;;;3.08;;
69256;SDS011;56376;53.356;-1.748;2023-09-19T15:30:48;7.60;;;3.20;;
69256;SDS011;56376;53.356;-1.748;2023-09-19T15:33:22;7.53;;;3.17;;
69256;SDS011;56376;53.356;-1.748;2023-09-19T15:35:47;6.88;;;2.70;;
69256;SDS011;56376;53.356;-1.748;2023-09-19T15:38:13;10.35;;;2.58;;
69256;SDS011;56376;53.356;-1.748;2023-09-19T15:40:45;10.20;;;2.25;;
69256;SDS011;56376;53.356;-1.748;2023-09-19T15:43:11;9.43;;;2.78;;
69256;SDS011;56376;53.356;-1.748;2023-09-19T15:45:37;9.65;;;2.63;;
69256;SDS011;56376;53.356;-1.748;2023-09-19T15:48:03;7.00;;;2.35;;
69256;SDS011;56376;53.356;-1.748;2023-09-19T15:50:29;10.02;;;2.60;;
69256;SDS011;56376;53.356;-1.748;2023-09-19T15:52:55;8.75;;;2.35;;
69256;SDS011;56376;53.356;-1.748;2023-09-19T15:55:21;11.80;;;2.50;;
69256;SDS011;56376;53.356;-1.748;2023-09-19T15:57:46;8.43;;;2.70;;
69256;SDS011;56376;53.356;-1.748;2023-09-19T16:00:13;9.35;;;2.70;;
69256;SDS011;56376;53.356;-1.748;2023-09-19T16:02:42;7.15;;;2.25;;
69256;SDS011;56376;53.356;-1.748;2023-09-19T16:05:08;7.38;;;2.92;;
69256;SDS011;56376;53.356;-1.748;2023-09-19T16:07:34;8.80;;;2.40;;
69256;SDS011;56376;53.356;-1.748;2023-09-19T16:10:01;5.97;;;2.40;;
69256;SDS011;56376;53.356;-1.748;2023-09-19T16:12:27;7.05;;;2.58;;
69256;SDS011;56376;53.356;-1.748;2023-09-19T16:14:53;5.93;;;2.92;;
69256;SDS011;56376;53.356;-1.748;2023-09-19T16:17:18;5.78;;;2.22;;
69256;SDS011;56376;53.356;-1.748;2023-09-19T16:19:44;7.13;;;2.53;;
69256;SDS011;56376;53.356;-1.748;2023-09-19T16:22:09;4.65;;;1.85;;
69256;SDS011;56376;53.356;-1.748;2023-09-19T16:24:36;7.78;;;2.33;;
69256;SDS011;56376;53.356;-1.748;2023-09-19T16:27:03;6.40;;;2.20;;
69256;SDS011;56376;53.356;-1.748;2023-09-19T16:29:29;6.57;;;2.53;;
69256;SDS011;56376;53.356;-1.748;2023-09-19T16:31:54;5.25;;;1.70;;
69256;SDS011;56376;53.356;-1.748;2023-09-19T16:34:19;8.02;;;2.42;;
69256;SDS011;56376;53.356;-1.748;2023-09-19T16:36:45;6.68;;;2.30;;